sensor_id;sensor_type;location;lat;lon;timestamp;P1;durP1;ratioP1;P2;durP2;ratioP2
12433;SDS011;6281;49.038;8.372;2023-05-07T00:01:50;3.27;;;2.13;;
12433;SDS011;6281;49.038;8.372;2023-05-07T00:04:18;3.17;;;2.40;;
12433;SDS011;6281;49.038;8.372;2023-05-07T00:06:45;3.23;;;1.80;;
12433;SDS011;6281;49.038;8.372;2023-05-07T00:09:16;2.17;;;1.97;;
12433;SDS011;6281;49.038;8.372;2023-05-07T00:11:43;2.13;;;1.77;;
12433;SDS011;6281;49.038;8.372;2023-05-07T00:14:10;4.33;;;1.90;;
12433;SDS011;6281;49.038;8.372;2023-05-07T00:16:36;2.40;;;2.20;;
12433;SDS011;6281;49.038;8.372;2023-05-07T00:19:03;2.77;;;1.87;;
12433;SDS011;6281;49.038;8.372;2023-05-07T00:21:30;2.63;;;1.97;;
12433;SDS011;6281;49.038;8.372;2023-05-07T00:23:57;2.73;;;2.07;;
12433;SDS011;6281;49.038;8.372;2023-05-07T00:26:28;3.67;;;2.10;;
12433;SDS011;6281;49.038;8.372;2023-05-07T00:28:55;2.80;;;2.20;;
12433;SDS011;6281;49.038;8.372;2023-05-07T00:31:22;2.27;;;2.03;;
12433;SDS011;6281;49.038;8.372;2023-05-07T00:33:49;2.60;;;2.10;;
12433;SDS011;6281;49.038;8.372;2023-05-07T00:36:16;2.60;;;1.80;;
12433;SDS011;6281;49.038;8.372;2023-05-07T00:38:43;3.57;;;2.40;;
12433;SDS011;6281;49.038;8.372;2023-05-07T00:41:10;3.17;;;2.23;;
12433;SDS011;6281;49.038;8.372;2023-05-07T00:43:38;2.40;;;2.07;;
12433;SDS011;6281;49.038;8.372;2023-05-07T00:46:05;5.43;;;2.10;;
12433;SDS011;6281;49.038;8.372;2023-05-07T00:48:32;1.97;;;1.77;;
12433;SDS011;6281;49.038;8.372;2023-05-07T00:50:59;1.90;;;1.80;;
12433;SDS011;6281;49.038;8.372;2023-05-07T00:53:26;2.70;;;1.80;;
12433;SDS011;6281;49.038;8.372;2023-05-07T00:55:53;2.60;;;1.77;;
12433;SDS011;6281;49.038;8.372;2023-05-07T00:58:20;2.20;;;2.00;;
12433;SDS011;6281;49.038;8.372;2023-05-07T01:00:51;2.23;;;1.80;;
12433;SDS011;6281;49.038;8.372;2023-05-07T01:03:18;5.93;;;2.10;;
12433;SDS011;6281;49.038;8.372;2023-05-07T01:05:47;4.07;;;2.10;;
12433;SDS011;6281;49.038;8.372;2023-05-07T01:08:15;2.17;;;1.70;;
12433;SDS011;6281;49.038;8.372;2023-05-07T01:10:44;2.83;;;1.97;;
12433;SDS011;6281;49.038;8.372;2023-05-07T01:13:12;2.77;;;2.17;;
12433;SDS011;6281;49.038;8.372;2023-05-07T01:15:39;3.40;;;2.03;;
12433;SDS011;6281;49.038;8.372;2023-05-07T01:18:08;2.90;;;2.30;;
12433;SDS011;6281;49.038;8.372;2023-05-07T01:20:35;2.27;;;2.00;;
12433;SDS011;6281;49.038;8.372;2023-05-07T01:23:03;2.43;;;2.20;;
12433;SDS011;6281;49.038;8.372;2023-05-07T01:25:31;2.60;;;2.10;;
12433;SDS011;6281;49.038;8.372;2023-05-07T01:27:57;2.57;;;1.90;;
12433;SDS011;6281;49.038;8.372;2023-05-07T01:30:26;4.93;;;1.90;;
12433;SDS011;6281;49.038;8.372;2023-05-07T01:32:56;2.23;;;2.03;;
12433;SDS011;6281;49.038;8.372;2023-05-07T01:35:29;2.73;;;1.93;;
12433;SDS011;6281;49.038;8.372;2023-05-07T01:38:03;2.60;;;2.20;;
12433;SDS011;6281;49.038;8.372;2023-05-07T01:40:31;3.10;;;2.30;;
12433;SDS011;6281;49.038;8.372;2023-05-07T01:42:59;3.50;;;1.70;;
12433;SDS011;6281;49.038;8.372;2023-05-07T01:45:28;3.93;;;1.83;;
12433;SDS011;6281;49.038;8.372;2023-05-07T01:48:03;2.20;;;1.80;;
12433;SDS011;6281;49.038;8.372;2023-05-07T01:50:30;2.30;;;1.63;;
12433;SDS011;6281;49.038;8.372;2023-05-07T01:52:58;1.93;;;1.77;;
12433;SDS011;6281;49.038;8.372;2023-05-07T01:55:26;2.50;;;2.10;;
12433;SDS011;6281;49.038;8.372;2023-05-07T01:57:53;3.13;;;2.20;;
12433;SDS011;6281;49.038;8.372;2023-05-07T02:00:22;2.43;;;2.00;;
12433;SDS011;6281;49.038;8.372;2023-05-07T02:02:49;3.17;;;2.07;;
12433;SDS011;6281;49.038;8.372;2023-05-07T02:05:17;2.10;;;1.90;;
12433;SDS011;6281;49.038;8.372;2023-05-07T02:07:44;1.93;;;1.60;;
12433;SDS011;6281;49.038;8.372;2023-05-07T02:10:11;2.37;;;2.13;;
12433;SDS011;6281;49.038;8.372;2023-05-07T02:12:39;2.87;;;2.00;;
12433;SDS011;6281;49.038;8.372;2023-05-07T02:15:07;2.50;;;2.30;;
12433;SDS011;6281;49.038;8.372;2023-05-07T02:17:38;2.57;;;2.23;;
12433;SDS011;6281;49.038;8.372;2023-05-07T02:20:24;2.20;;;2.00;;
12433;SDS011;6281;49.038;8.372;2023-05-07T02:22:50;2.07;;;1.80;;
12433;SDS011;6281;49.038;8.372;2023-05-07T02:25:17;2.57;;;2.20;;
12433;SDS011;6281;49.038;8.372;2023-05-07T02:27:45;4.20;;;2.13;;
12433;SDS011;6281;49.038;8.372;2023-05-07T02:30:13;2.53;;;1.90;;
12433;SDS011;6281;49.038;8.372;2023-05-07T02:32:40;2.10;;;1.80;;
12433;SDS011;6281;49.038;8.372;2023-05-07T02:35:07;2.20;;;1.80;;
12433;SDS011;6281;49.038;8.372;2023-05-07T02:37:36;2.60;;;1.90;;
12433;SDS011;6281;49.038;8.372;2023-05-07T02:40:03;2.93;;;1.83;;
12433;SDS011;6281;49.038;8.372;2023-05-07T02:42:30;2.43;;;2.03;;
12433;SDS011;6281;49.038;8.372;2023-05-07T02:44:59;2.37;;;2.10;;
12433;SDS011;6281;49.038;8.372;2023-05-07T02:47:26;2.57;;;2.30;;
12433;SDS011;6281;49.038;8.372;2023-05-07T02:49:54;2.07;;;1.83;;
12433;SDS011;6281;49.038;8.372;2023-05-07T02:52:21;2.37;;;1.93;;
12433;SDS011;6281;49.038;8.372;2023-05-07T02:54:48;3.03;;;2.33;;
12433;SDS011;6281;49.038;8.372;2023-05-07T02:57:15;2.27;;;1.80;;
12433;SDS011;6281;49.038;8.372;2023-05-07T02:59:42;2.10;;;1.90;;
12433;SDS011;6281;49.038;8.372;2023-05-07T03:02:11;2.30;;;2.10;;
12433;SDS011;6281;49.038;8.372;2023-05-07T03:04:39;2.37;;;1.80;;
12433;SDS011;6281;49.038;8.372;2023-05-07T03:07:06;2.77;;;2.00;;
12433;SDS011;6281;49.038;8.372;2023-05-07T03:09:33;6.03;;;2.03;;
12433;SDS011;6281;49.038;8.372;2023-05-07T03:11:59;2.20;;;1.90;;
12433;SDS011;6281;49.038;8.372;2023-05-07T03:14:26;2.40;;;2.03;;
12433;SDS011;6281;49.038;8.372;2023-05-07T03:16:53;2.10;;;1.90;;
12433;SDS011;6281;49.038;8.372;2023-05-07T03:19:22;2.20;;;2.00;;
12433;SDS011;6281;49.038;8.372;2023-05-07T03:21:49;2.53;;;2.00;;
12433;SDS011;6281;49.038;8.372;2023-05-07T03:24:16;3.23;;;2.40;;
12433;SDS011;6281;49.038;8.372;2023-05-07T03:26:43;3.63;;;2.03;;
12433;SDS011;6281;49.038;8.372;2023-05-07T03:29:09;2.70;;;2.20;;
12433;SDS011;6281;49.038;8.372;2023-05-07T03:31:36;2.67;;;2.30;;
12433;SDS011;6281;49.038;8.372;2023-05-07T03:34:04;3.23;;;2.00;;
12433;SDS011;6281;49.038;8.372;2023-05-07T03:36:32;2.67;;;1.80;;
12433;SDS011;6281;49.038;8.372;2023-05-07T03:38:59;3.10;;;2.07;;
12433;SDS011;6281;49.038;8.372;2023-05-07T03:41:26;3.53;;;1.90;;
12433;SDS011;6281;49.038;8.372;2023-05-07T03:43:54;4.43;;;2.07;;
12433;SDS011;6281;49.038;8.372;2023-05-07T03:46:21;2.57;;;1.90;;
12433;SDS011;6281;49.038;8.372;2023-05-07T03:51:50;4.27;;;2.10;;
12433;SDS011;6281;49.038;8.372;2023-05-07T03:54:17;2.70;;;2.50;;
12433;SDS011;6281;49.038;8.372;2023-05-07T03:56:43;2.17;;;1.87;;
12433;SDS011;6281;49.038;8.372;2023-05-07T03:59:11;2.30;;;1.83;;
12433;SDS011;6281;49.038;8.372;2023-05-07T04:01:38;2.57;;;2.00;;
12433;SDS011;6281;49.038;8.372;2023-05-07T04:04:05;2.57;;;2.20;;
12433;SDS011;6281;49.038;8.372;2023-05-07T04:06:32;2.07;;;1.83;;
12433;SDS011;6281;49.038;8.372;2023-05-07T04:09:00;2.20;;;1.93;;
12433;SDS011;6281;49.038;8.372;2023-05-07T04:11:27;2.47;;;2.10;;
12433;SDS011;6281;49.038;8.372;2023-05-07T04:13:54;1.83;;;1.60;;
12433;SDS011;6281;49.038;8.372;2023-05-07T04:16:21;2.50;;;1.90;;
12433;SDS011;6281;49.038;8.372;2023-05-07T04:18:48;2.87;;;2.10;;
12433;SDS011;6281;49.038;8.372;2023-05-07T04:21:15;2.07;;;1.87;;
12433;SDS011;6281;49.038;8.372;2023-05-07T04:23:42;2.17;;;1.93;;
12433;SDS011;6281;49.038;8.372;2023-05-07T04:26:11;2.50;;;1.90;;
12433;SDS011;6281;49.038;8.372;2023-05-07T04:28:38;3.40;;;2.20;;
12433;SDS011;6281;49.038;8.372;2023-05-07T04:31:05;2.20;;;2.00;;
12433;SDS011;6281;49.038;8.372;2023-05-07T04:33:32;2.20;;;2.00;;
12433;SDS011;6281;49.038;8.372;2023-05-07T04:36:01;2.90;;;2.17;;
12433;SDS011;6281;49.038;8.372;2023-05-07T04:38:28;4.10;;;2.30;;
12433;SDS011;6281;49.038;8.372;2023-05-07T04:40:56;2.47;;;2.27;;
12433;SDS011;6281;49.038;8.372;2023-05-07T04:43:24;2.73;;;2.10;;
12433;SDS011;6281;49.038;8.372;2023-05-07T04:45:51;2.77;;;2.27;;
12433;SDS011;6281;49.038;8.372;2023-05-07T04:48:18;2.07;;;1.87;;
12433;SDS011;6281;49.038;8.372;2023-05-07T04:50:47;2.67;;;2.30;;
12433;SDS011;6281;49.038;8.372;2023-05-07T04:53:14;3.70;;;2.30;;
12433;SDS011;6281;49.038;8.372;2023-05-07T04:55:41;2.80;;;2.13;;
12433;SDS011;6281;49.038;8.372;2023-05-07T04:58:08;2.10;;;1.80;;
12433;SDS011;6281;49.038;8.372;2023-05-07T05:00:37;2.00;;;1.80;;
12433;SDS011;6281;49.038;8.372;2023-05-07T05:03:04;2.23;;;2.03;;
12433;SDS011;6281;49.038;8.372;2023-05-07T05:05:32;2.23;;;2.03;;
12433;SDS011;6281;49.038;8.372;2023-05-07T05:07:59;2.60;;;2.00;;
12433;SDS011;6281;49.038;8.372;2023-05-07T05:10:26;2.47;;;2.07;;
12433;SDS011;6281;49.038;8.372;2023-05-07T05:12:53;2.30;;;2.10;;
12433;SDS011;6281;49.038;8.372;2023-05-07T05:15:20;2.63;;;2.10;;
12433;SDS011;6281;49.038;8.372;2023-05-07T05:17:48;2.27;;;2.00;;
12433;SDS011;6281;49.038;8.372;2023-05-07T05:20:15;1.97;;;1.80;;
12433;SDS011;6281;49.038;8.372;2023-05-07T05:22:42;2.50;;;2.07;;
12433;SDS011;6281;49.038;8.372;2023-05-07T05:25:09;3.27;;;2.27;;
12433;SDS011;6281;49.038;8.372;2023-05-07T05:27:36;3.20;;;2.10;;
12433;SDS011;6281;49.038;8.372;2023-05-07T05:30:03;3.00;;;2.60;;
12433;SDS011;6281;49.038;8.372;2023-05-07T05:32:31;4.10;;;1.93;;
12433;SDS011;6281;49.038;8.372;2023-05-07T05:34:59;2.70;;;2.33;;
12433;SDS011;6281;49.038;8.372;2023-05-07T05:37:26;6.73;;;2.20;;
12433;SDS011;6281;49.038;8.372;2023-05-07T05:39:55;2.40;;;2.17;;
12433;SDS011;6281;49.038;8.372;2023-05-07T05:42:22;2.53;;;2.10;;
12433;SDS011;6281;49.038;8.372;2023-05-07T05:44:49;4.17;;;2.27;;
12433;SDS011;6281;49.038;8.372;2023-05-07T05:47:15;2.20;;;2.00;;
12433;SDS011;6281;49.038;8.372;2023-05-07T05:49:42;2.60;;;2.03;;
12433;SDS011;6281;49.038;8.372;2023-05-07T05:52:11;2.20;;;2.00;;
12433;SDS011;6281;49.038;8.372;2023-05-07T05:54:39;2.70;;;1.93;;
12433;SDS011;6281;49.038;8.372;2023-05-07T05:57:05;2.40;;;2.03;;
12433;SDS011;6281;49.038;8.372;2023-05-07T05:59:32;2.10;;;1.90;;
12433;SDS011;6281;49.038;8.372;2023-05-07T06:01:59;2.67;;;2.10;;
12433;SDS011;6281;49.038;8.372;2023-05-07T06:04:26;2.27;;;1.87;;
12433;SDS011;6281;49.038;8.372;2023-05-07T06:06:53;2.73;;;1.93;;
12433;SDS011;6281;49.038;8.372;2023-05-07T06:09:23;3.90;;;2.27;;
12433;SDS011;6281;49.038;8.372;2023-05-07T06:11:50;3.90;;;2.23;;
12433;SDS011;6281;49.038;8.372;2023-05-07T06:14:17;2.33;;;2.10;;
12433;SDS011;6281;49.038;8.372;2023-05-07T06:16:44;2.20;;;2.00;;
12433;SDS011;6281;49.038;8.372;2023-05-07T06:19:11;2.57;;;2.27;;
12433;SDS011;6281;49.038;8.372;2023-05-07T06:21:38;2.63;;;1.87;;
12433;SDS011;6281;49.038;8.372;2023-05-07T06:24:06;2.30;;;1.80;;
12433;SDS011;6281;49.038;8.372;2023-05-07T06:26:35;2.10;;;1.90;;
12433;SDS011;6281;49.038;8.372;2023-05-07T06:29:01;1.70;;;1.60;;
12433;SDS011;6281;49.038;8.372;2023-05-07T06:31:29;1.70;;;1.60;;
12433;SDS011;6281;49.038;8.372;2023-05-07T06:33:57;2.13;;;1.77;;
12433;SDS011;6281;49.038;8.372;2023-05-07T06:36:25;2.40;;;1.73;;
12433;SDS011;6281;49.038;8.372;2023-05-07T06:38:52;1.60;;;1.50;;
12433;SDS011;6281;49.038;8.372;2023-05-07T06:41:19;1.97;;;1.77;;
12433;SDS011;6281;49.038;8.372;2023-05-07T06:43:48;2.23;;;1.63;;
12433;SDS011;6281;49.038;8.372;2023-05-07T06:46:15;2.10;;;1.77;;
12433;SDS011;6281;49.038;8.372;2023-05-07T06:48:42;5.57;;;1.80;;
12433;SDS011;6281;49.038;8.372;2023-05-07T06:51:09;2.00;;;1.70;;
12433;SDS011;6281;49.038;8.372;2023-05-07T06:53:35;1.80;;;1.33;;
12433;SDS011;6281;49.038;8.372;2023-05-07T06:56:02;2.83;;;1.60;;
12433;SDS011;6281;49.038;8.372;2023-05-07T06:58:29;1.70;;;1.60;;
12433;SDS011;6281;49.038;8.372;2023-05-07T07:00:58;1.93;;;1.73;;
12433;SDS011;6281;49.038;8.372;2023-05-07T07:03:25;1.93;;;1.73;;
12433;SDS011;6281;49.038;8.372;2023-05-07T07:05:52;3.00;;;1.53;;
12433;SDS011;6281;49.038;8.372;2023-05-07T07:08:19;2.87;;;1.63;;
12433;SDS011;6281;49.038;8.372;2023-05-07T07:10:46;1.60;;;1.50;;
12433;SDS011;6281;49.038;8.372;2023-05-07T07:13:13;2.30;;;1.70;;
12433;SDS011;6281;49.038;8.372;2023-05-07T07:15:40;2.20;;;1.40;;
12433;SDS011;6281;49.038;8.372;2023-05-07T07:18:09;1.60;;;1.50;;
12433;SDS011;6281;49.038;8.372;2023-05-07T07:20:36;1.70;;;1.20;;
12433;SDS011;6281;49.038;8.372;2023-05-07T07:23:02;1.50;;;1.40;;
12433;SDS011;6281;49.038;8.372;2023-05-07T07:25:29;2.47;;;1.63;;
12433;SDS011;6281;49.038;8.372;2023-05-07T07:27:56;1.60;;;1.50;;
12433;SDS011;6281;49.038;8.372;2023-05-07T07:30:23;1.70;;;1.47;;
12433;SDS011;6281;49.038;8.372;2023-05-07T07:32:51;1.47;;;1.37;;
12433;SDS011;6281;49.038;8.372;2023-05-07T07:35:19;1.50;;;1.40;;
12433;SDS011;6281;49.038;8.372;2023-05-07T07:37:46;2.03;;;1.63;;
12433;SDS011;6281;49.038;8.372;2023-05-07T07:40:14;2.17;;;1.30;;
12433;SDS011;6281;49.038;8.372;2023-05-07T07:42:41;2.10;;;1.50;;
12433;SDS011;6281;49.038;8.372;2023-05-07T07:45:10;1.80;;;1.37;;
12433;SDS011;6281;49.038;8.372;2023-05-07T07:47:37;1.80;;;1.70;;
12433;SDS011;6281;49.038;8.372;2023-05-07T07:50:04;1.67;;;1.57;;
12433;SDS011;6281;49.038;8.372;2023-05-07T07:52:34;2.13;;;1.77;;
12433;SDS011;6281;49.038;8.372;2023-05-07T07:55:01;3.03;;;1.70;;
12433;SDS011;6281;49.038;8.372;2023-05-07T07:57:28;3.97;;;1.73;;
12433;SDS011;6281;49.038;8.372;2023-05-07T07:59:55;2.10;;;1.70;;
12433;SDS011;6281;49.038;8.372;2023-05-07T08:02:22;2.37;;;1.80;;
12433;SDS011;6281;49.038;8.372;2023-05-07T08:04:49;2.07;;;1.83;;
12433;SDS011;6281;49.038;8.372;2023-05-07T08:07:15;4.83;;;1.87;;
12433;SDS011;6281;49.038;8.372;2023-05-07T08:09:45;1.93;;;1.73;;
12433;SDS011;6281;49.038;8.372;2023-05-07T08:12:12;2.10;;;1.70;;
12433;SDS011;6281;49.038;8.372;2023-05-07T08:14:39;2.23;;;1.80;;
12433;SDS011;6281;49.038;8.372;2023-05-07T08:17:06;2.63;;;1.80;;
12433;SDS011;6281;49.038;8.372;2023-05-07T08:19:34;3.43;;;1.77;;
12433;SDS011;6281;49.038;8.372;2023-05-07T08:22:02;2.63;;;1.80;;
12433;SDS011;6281;49.038;8.372;2023-05-07T08:24:29;4.23;;;2.07;;
12433;SDS011;6281;49.038;8.372;2023-05-07T08:26:57;3.93;;;1.97;;
12433;SDS011;6281;49.038;8.372;2023-05-07T08:29:23;2.40;;;1.80;;
12433;SDS011;6281;49.038;8.372;2023-05-07T08:31:50;2.23;;;1.90;;
12433;SDS011;6281;49.038;8.372;2023-05-07T08:34:17;4.10;;;2.10;;
12433;SDS011;6281;49.038;8.372;2023-05-07T08:36:44;1.83;;;1.70;;
12433;SDS011;6281;49.038;8.372;2023-05-07T08:39:13;2.27;;;1.63;;
12433;SDS011;6281;49.038;8.372;2023-05-07T08:41:40;2.83;;;2.10;;
12433;SDS011;6281;49.038;8.372;2023-05-07T08:44:12;2.60;;;1.97;;
12433;SDS011;6281;49.038;8.372;2023-05-07T08:46:41;2.90;;;1.97;;
12433;SDS011;6281;49.038;8.372;2023-05-07T08:49:08;1.83;;;1.57;;
12433;SDS011;6281;49.038;8.372;2023-05-07T08:51:35;2.00;;;1.80;;
12433;SDS011;6281;49.038;8.372;2023-05-07T08:54:02;2.60;;;1.60;;
12433;SDS011;6281;49.038;8.372;2023-05-07T08:56:29;2.20;;;1.80;;
12433;SDS011;6281;49.038;8.372;2023-05-07T08:58:56;2.10;;;1.90;;
12433;SDS011;6281;49.038;8.372;2023-05-07T09:01:25;1.77;;;1.63;;
12433;SDS011;6281;49.038;8.372;2023-05-07T09:03:52;1.50;;;1.40;;
12433;SDS011;6281;49.038;8.372;2023-05-07T09:06:19;3.53;;;1.87;;
12433;SDS011;6281;49.038;8.372;2023-05-07T09:08:49;1.70;;;1.60;;
12433;SDS011;6281;49.038;8.372;2023-05-07T09:11:19;2.23;;;1.80;;
12433;SDS011;6281;49.038;8.372;2023-05-07T09:13:47;2.27;;;2.00;;
12433;SDS011;6281;49.038;8.372;2023-05-07T09:16:14;2.40;;;1.60;;
12433;SDS011;6281;49.038;8.372;2023-05-07T09:18:43;2.43;;;2.00;;
12433;SDS011;6281;49.038;8.372;2023-05-07T09:21:10;2.33;;;1.90;;
12433;SDS011;6281;49.038;8.372;2023-05-07T09:23:37;2.47;;;1.77;;
12433;SDS011;6281;49.038;8.372;2023-05-07T09:26:05;3.57;;;2.17;;
12433;SDS011;6281;49.038;8.372;2023-05-07T09:28:37;2.13;;;1.93;;
12433;SDS011;6281;49.038;8.372;2023-05-07T09:31:04;2.10;;;1.90;;
12433;SDS011;6281;49.038;8.372;2023-05-07T09:33:31;2.37;;;1.83;;
12433;SDS011;6281;49.038;8.372;2023-05-07T09:36:01;3.83;;;1.93;;
12433;SDS011;6281;49.038;8.372;2023-05-07T09:38:28;2.40;;;2.10;;
12433;SDS011;6281;49.038;8.372;2023-05-07T09:41:02;2.60;;;2.07;;
12433;SDS011;6281;49.038;8.372;2023-05-07T09:43:31;2.40;;;2.03;;
12433;SDS011;6281;49.038;8.372;2023-05-07T09:46:06;3.00;;;2.10;;
12433;SDS011;6281;49.038;8.372;2023-05-07T09:48:35;2.57;;;2.00;;
12433;SDS011;6281;49.038;8.372;2023-05-07T09:51:09;3.37;;;1.90;;
12433;SDS011;6281;49.038;8.372;2023-05-07T09:53:44;2.00;;;1.80;;
12433;SDS011;6281;49.038;8.372;2023-05-07T09:56:12;1.93;;;1.73;;
12433;SDS011;6281;49.038;8.372;2023-05-07T09:58:40;3.47;;;2.03;;
12433;SDS011;6281;49.038;8.372;2023-05-07T10:01:08;2.10;;;1.90;;
12433;SDS011;6281;49.038;8.372;2023-05-07T10:03:36;2.53;;;2.33;;
12433;SDS011;6281;49.038;8.372;2023-05-07T10:06:08;2.90;;;2.40;;
12433;SDS011;6281;49.038;8.372;2023-05-07T10:08:35;2.20;;;2.00;;
12433;SDS011;6281;49.038;8.372;2023-05-07T10:11:03;2.60;;;2.03;;
12433;SDS011;6281;49.038;8.372;2023-05-07T10:13:30;2.40;;;2.20;;
12433;SDS011;6281;49.038;8.372;2023-05-07T10:15:58;2.17;;;2.03;;
12433;SDS011;6281;49.038;8.372;2023-05-07T10:18:26;1.80;;;1.70;;
12433;SDS011;6281;49.038;8.372;2023-05-07T10:20:54;2.30;;;2.10;;
12433;SDS011;6281;49.038;8.372;2023-05-07T10:23:29;2.65;;;1.70;;
12433;SDS011;6281;49.038;8.372;2023-05-07T10:25:59;2.35;;;2.15;;
12433;SDS011;6281;49.038;8.372;2023-05-07T10:28:33;2.15;;;1.95;;
12433;SDS011;6281;49.038;8.372;2023-05-07T10:31:08;1.88;;;1.77;;
12433;SDS011;6281;49.038;8.372;2023-05-07T10:33:44;2.47;;;1.88;;
12433;SDS011;6281;49.038;8.372;2023-05-07T10:36:13;3.33;;;2.22;;
12433;SDS011;6281;49.038;8.372;2023-05-07T10:38:41;2.40;;;2.20;;
12433;SDS011;6281;49.038;8.372;2023-05-07T10:41:09;2.33;;;2.13;;
12433;SDS011;6281;49.038;8.372;2023-05-07T10:43:42;2.10;;;1.90;;
12433;SDS011;6281;49.038;8.372;2023-05-07T10:46:09;2.05;;;1.95;;
12433;SDS011;6281;49.038;8.372;2023-05-07T10:51:40;2.00;;;1.80;;
12433;SDS011;6281;49.038;8.372;2023-05-07T10:54:24;1.90;;;1.80;;
12433;SDS011;6281;49.038;8.372;2023-05-07T10:56:51;2.33;;;2.10;;
12433;SDS011;6281;49.038;8.372;2023-05-07T10:59:30;2.40;;;2.20;;
12433;SDS011;6281;49.038;8.372;2023-05-07T11:02:01;2.22;;;2.03;;
12433;SDS011;6281;49.038;8.372;2023-05-07T11:04:32;2.20;;;2.00;;
12433;SDS011;6281;49.038;8.372;2023-05-07T11:10:03;1.95;;;1.80;;
12433;SDS011;6281;49.038;8.372;2023-05-07T11:15:37;2.28;;;2.08;;
12433;SDS011;6281;49.038;8.372;2023-05-07T11:18:07;1.98;;;1.85;;
12433;SDS011;6281;49.038;8.372;2023-05-07T11:20:44;4.95;;;1.92;;
12433;SDS011;6281;49.038;8.372;2023-05-07T11:26:43;2.33;;;1.85;;
12433;SDS011;6281;49.038;8.372;2023-05-07T11:29:15;2.25;;;1.98;;
12433;SDS011;6281;49.038;8.372;2023-05-07T11:31:43;2.10;;;1.90;;
12433;SDS011;6281;49.038;8.372;2023-05-07T11:34:09;2.00;;;1.70;;
12433;SDS011;6281;49.038;8.372;2023-05-07T11:36:41;2.38;;;2.17;;
12433;SDS011;6281;49.038;8.372;2023-05-07T11:39:25;1.83;;;1.70;;
12433;SDS011;6281;49.038;8.372;2023-05-07T11:41:54;2.20;;;1.92;;
12433;SDS011;6281;49.038;8.372;2023-05-07T11:44:21;2.65;;;2.10;;
12433;SDS011;6281;49.038;8.372;2023-05-07T11:46:48;2.50;;;2.30;;
12433;SDS011;6281;49.038;8.372;2023-05-07T11:49:16;2.47;;;2.10;;
12433;SDS011;6281;49.038;8.372;2023-05-07T11:51:43;2.25;;;2.05;;
12433;SDS011;6281;49.038;8.372;2023-05-07T11:54:11;2.20;;;2.00;;
12433;SDS011;6281;49.038;8.372;2023-05-07T11:56:42;2.22;;;1.85;;
12433;SDS011;6281;49.038;8.372;2023-05-07T11:59:13;2.03;;;1.85;;
12433;SDS011;6281;49.038;8.372;2023-05-07T12:01:45;2.00;;;1.83;;
12433;SDS011;6281;49.038;8.372;2023-05-07T12:04:12;1.85;;;1.65;;
12433;SDS011;6281;49.038;8.372;2023-05-07T12:06:38;2.40;;;2.15;;
12433;SDS011;6281;49.038;8.372;2023-05-07T12:09:05;3.20;;;1.88;;
12433;SDS011;6281;49.038;8.372;2023-05-07T12:11:36;1.95;;;1.80;;
12433;SDS011;6281;49.038;8.372;2023-05-07T12:14:05;2.22;;;2.00;;
12433;SDS011;6281;49.038;8.372;2023-05-07T12:16:33;2.42;;;1.77;;
12433;SDS011;6281;49.038;8.372;2023-05-07T12:19:00;2.05;;;1.95;;
12433;SDS011;6281;49.038;8.372;2023-05-07T12:21:27;3.67;;;2.00;;
12433;SDS011;6281;49.038;8.372;2023-05-07T12:23:55;1.83;;;1.70;;
12433;SDS011;6281;49.038;8.372;2023-05-07T12:26:22;2.42;;;1.83;;
12433;SDS011;6281;49.038;8.372;2023-05-07T12:28:50;2.00;;;1.90;;
12433;SDS011;6281;49.038;8.372;2023-05-07T12:31:16;3.58;;;1.50;;
12433;SDS011;6281;49.038;8.372;2023-05-07T12:33:45;2.13;;;1.70;;
12433;SDS011;6281;49.038;8.372;2023-05-07T12:36:12;2.10;;;1.90;;
12433;SDS011;6281;49.038;8.372;2023-05-07T12:38:39;1.80;;;1.70;;
12433;SDS011;6281;49.038;8.372;2023-05-07T12:41:12;1.80;;;1.70;;
12433;SDS011;6281;49.038;8.372;2023-05-07T12:43:39;2.17;;;1.60;;
12433;SDS011;6281;49.038;8.372;2023-05-07T12:46:06;2.03;;;1.88;;
12433;SDS011;6281;49.038;8.372;2023-05-07T12:48:33;2.08;;;1.88;;
12433;SDS011;6281;49.038;8.372;2023-05-07T12:51:04;2.28;;;1.88;;
12433;SDS011;6281;49.038;8.372;2023-05-07T12:53:32;2.20;;;1.73;;
12433;SDS011;6281;49.038;8.372;2023-05-07T12:56:01;2.03;;;1.83;;
12433;SDS011;6281;49.038;8.372;2023-05-07T12:58:32;1.50;;;1.40;;
12433;SDS011;6281;49.038;8.372;2023-05-07T13:01:00;1.55;;;1.45;;
12433;SDS011;6281;49.038;8.372;2023-05-07T13:03:31;2.22;;;1.50;;
12433;SDS011;6281;49.038;8.372;2023-05-07T13:05:59;1.73;;;1.63;;
12433;SDS011;6281;49.038;8.372;2023-05-07T13:08:30;2.28;;;2.08;;
12433;SDS011;6281;49.038;8.372;2023-05-07T13:10:58;2.85;;;1.52;;
12433;SDS011;6281;49.038;8.372;2023-05-07T13:13:28;1.90;;;1.70;;
12433;SDS011;6281;49.038;8.372;2023-05-07T13:15:55;1.48;;;1.30;;
12433;SDS011;6281;49.038;8.372;2023-05-07T13:18:22;2.58;;;2.00;;
12433;SDS011;6281;49.038;8.372;2023-05-07T13:20:50;2.25;;;1.70;;
12433;SDS011;6281;49.038;8.372;2023-05-07T13:23:17;1.90;;;1.70;;
12433;SDS011;6281;49.038;8.372;2023-05-07T13:25:45;2.90;;;2.10;;
12433;SDS011;6281;49.038;8.372;2023-05-07T13:28:12;2.20;;;2.00;;
12433;SDS011;6281;49.038;8.372;2023-05-07T13:30:39;3.15;;;2.42;;
12433;SDS011;6281;49.038;8.372;2023-05-07T13:33:06;2.97;;;2.70;;
12433;SDS011;6281;49.038;8.372;2023-05-07T13:35:33;2.63;;;2.30;;
12433;SDS011;6281;49.038;8.372;2023-05-07T13:38:00;3.38;;;3.08;;
12433;SDS011;6281;49.038;8.372;2023-05-07T13:40:27;4.18;;;3.78;;
12433;SDS011;6281;49.038;8.372;2023-05-07T13:42:57;3.92;;;3.53;;
12433;SDS011;6281;49.038;8.372;2023-05-07T13:45:26;3.95;;;3.47;;
12433;SDS011;6281;49.038;8.372;2023-05-07T13:47:54;4.13;;;3.65;;
12433;SDS011;6281;49.038;8.372;2023-05-07T13:50:22;3.85;;;3.55;;
12433;SDS011;6281;49.038;8.372;2023-05-07T13:52:49;3.88;;;2.63;;
12433;SDS011;6281;49.038;8.372;2023-05-07T13:55:16;3.97;;;3.47;;
12433;SDS011;6281;49.038;8.372;2023-05-07T13:57:44;2.70;;;2.50;;
12433;SDS011;6281;49.038;8.372;2023-05-07T14:00:13;2.20;;;2.00;;
12433;SDS011;6281;49.038;8.372;2023-05-07T14:02:41;2.78;;;2.42;;
12433;SDS011;6281;49.038;8.372;2023-05-07T14:05:08;3.03;;;2.50;;
12433;SDS011;6281;49.038;8.372;2023-05-07T14:07:35;2.45;;;2.00;;
12433;SDS011;6281;49.038;8.372;2023-05-07T14:10:02;3.10;;;2.00;;
12433;SDS011;6281;49.038;8.372;2023-05-07T14:12:29;3.83;;;2.67;;
12433;SDS011;6281;49.038;8.372;2023-05-07T14:14:57;2.30;;;2.10;;
12433;SDS011;6281;49.038;8.372;2023-05-07T14:17:25;2.70;;;2.33;;
12433;SDS011;6281;49.038;8.372;2023-05-07T14:19:52;3.67;;;2.13;;
12433;SDS011;6281;49.038;8.372;2023-05-07T14:22:19;3.50;;;2.53;;
12433;SDS011;6281;49.038;8.372;2023-05-07T14:24:46;4.57;;;3.03;;
12433;SDS011;6281;49.038;8.372;2023-05-07T14:27:13;2.93;;;2.67;;
12433;SDS011;6281;49.038;8.372;2023-05-07T14:29:40;3.97;;;2.90;;
12433;SDS011;6281;49.038;8.372;2023-05-07T14:32:07;2.83;;;2.40;;
12433;SDS011;6281;49.038;8.372;2023-05-07T14:34:35;3.53;;;3.10;;
12433;SDS011;6281;49.038;8.372;2023-05-07T14:37:02;5.50;;;3.07;;
12433;SDS011;6281;49.038;8.372;2023-05-07T14:39:29;2.97;;;2.60;;
12433;SDS011;6281;49.038;8.372;2023-05-07T14:41:56;3.97;;;2.30;;
12433;SDS011;6281;49.038;8.372;2023-05-07T14:44:23;2.63;;;2.43;;
12433;SDS011;6281;49.038;8.372;2023-05-07T14:46:50;3.07;;;2.30;;
12433;SDS011;6281;49.038;8.372;2023-05-07T14:49:17;2.70;;;2.40;;
12433;SDS011;6281;49.038;8.372;2023-05-07T14:51:45;1.73;;;1.60;;
12433;SDS011;6281;49.038;8.372;2023-05-07T14:54:12;2.77;;;1.33;;
12433;SDS011;6281;49.038;8.372;2023-05-07T14:56:40;2.90;;;1.60;;
12433;SDS011;6281;49.038;8.372;2023-05-07T14:59:07;2.33;;;1.40;;
12433;SDS011;6281;49.038;8.372;2023-05-07T15:01:35;2.20;;;1.30;;
12433;SDS011;6281;49.038;8.372;2023-05-07T15:04:02;1.20;;;1.10;;
12433;SDS011;6281;49.038;8.372;2023-05-07T15:06:30;2.17;;;1.17;;
12433;SDS011;6281;49.038;8.372;2023-05-07T15:08:58;1.40;;;1.30;;
12433;SDS011;6281;49.038;8.372;2023-05-07T15:11:25;2.23;;;0.93;;
12433;SDS011;6281;49.038;8.372;2023-05-07T15:13:51;1.60;;;1.30;;
12433;SDS011;6281;49.038;8.372;2023-05-07T15:16:18;1.60;;;1.50;;
12433;SDS011;6281;49.038;8.372;2023-05-07T15:18:45;1.77;;;1.50;;
12433;SDS011;6281;49.038;8.372;2023-05-07T15:21:12;2.13;;;1.70;;